sensor_id;sensor_type;location;lat;lon;timestamp;P1;durP1;ratioP1;P2;durP2;ratioP2
22172;SDS011;11252;50.596;17.648;2022-12-07T00:01:35;24.00;;;17.57;;
22172;SDS011;11252;50.596;17.648;2022-12-07T00:04:05;27.83;;;18.60;;
22172;SDS011;11252;50.596;17.648;2022-12-07T00:06:35;24.07;;;17.17;;
22172;SDS011;11252;50.596;17.648;2022-12-07T00:09:05;24.97;;;16.73;;
22172;SDS011;11252;50.596;17.648;2022-12-07T00:11:34;26.33;;;16.80;;
22172;SDS011;11252;50.596;17.648;2022-12-07T00:14:02;25.53;;;17.93;;
22172;SDS011;11252;50.596;17.648;2022-12-07T00:16:32;23.33;;;16.70;;
22172;SDS011;11252;50.596;17.648;2022-12-07T00:19:00;23.10;;;16.70;;
22172;SDS011;11252;50.596;17.648;2022-12-07T00:21:36;28.93;;;18.07;;
22172;SDS011;11252;50.596;17.648;2022-12-07T00:24:04;23.00;;;17.73;;
22172;SDS011;11252;50.596;17.648;2022-12-07T00:26:36;25.60;;;18.80;;
22172;SDS011;11252;50.596;17.648;2022-12-07T00:29:20;23.50;;;16.40;;
22172;SDS011;11252;50.596;17.648;2022-12-07T00:31:49;23.50;;;16.57;;
22172;SDS011;11252;50.596;17.648;2022-12-07T00:34:18;22.73;;;16.00;;
22172;SDS011;11252;50.596;17.648;2022-12-07T00:36:47;23.33;;;16.37;;
22172;SDS011;11252;50.596;17.648;2022-12-07T00:39:15;18.90;;;14.53;;
22172;SDS011;11252;50.596;17.648;2022-12-07T00:41:44;20.17;;;13.83;;
22172;SDS011;11252;50.596;17.648;2022-12-07T00:44:11;19.13;;;13.77;;
22172;SDS011;11252;50.596;17.648;2022-12-07T00:46:39;20.53;;;14.77;;
22172;SDS011;11252;50.596;17.648;2022-12-07T00:49:06;19.33;;;13.97;;
22172;SDS011;11252;50.596;17.648;2022-12-07T00:51:33;16.87;;;13.00;;
22172;SDS011;11252;50.596;17.648;2022-12-07T00:54:01;15.63;;;12.23;;
22172;SDS011;11252;50.596;17.648;2022-12-07T00:56:28;14.63;;;12.33;;
22172;SDS011;11252;50.596;17.648;2022-12-07T00:58:57;16.33;;;12.63;;
22172;SDS011;11252;50.596;17.648;2022-12-07T01:01:30;16.50;;;11.80;;
22172;SDS011;11252;50.596;17.648;2022-12-07T01:04:00;16.77;;;11.87;;
22172;SDS011;11252;50.596;17.648;2022-12-07T01:06:30;17.10;;;11.93;;
22172;SDS011;11252;50.596;17.648;2022-12-07T01:08:58;15.13;;;11.50;;
22172;SDS011;11252;50.596;17.648;2022-12-07T01:11:27;16.47;;;12.27;;
22172;SDS011;11252;50.596;17.648;2022-12-07T01:13:56;17.17;;;12.30;;
22172;SDS011;11252;50.596;17.648;2022-12-07T01:16:26;18.00;;;12.80;;
22172;SDS011;11252;50.596;17.648;2022-12-07T01:18:55;20.50;;;14.17;;
22172;SDS011;11252;50.596;17.648;2022-12-07T01:21:27;19.77;;;13.67;;
22172;SDS011;11252;50.596;17.648;2022-12-07T01:23:57;23.47;;;15.50;;
22172;SDS011;11252;50.596;17.648;2022-12-07T01:26:24;23.10;;;17.50;;
22172;SDS011;11252;50.596;17.648;2022-12-07T01:28:52;23.53;;;16.30;;
22172;SDS011;11252;50.596;17.648;2022-12-07T01:31:22;32.97;;;20.27;;
22172;SDS011;11252;50.596;17.648;2022-12-07T01:33:52;56.90;;;29.77;;
22172;SDS011;11252;50.596;17.648;2022-12-07T01:36:31;60.20;;;31.83;;
22172;SDS011;11252;50.596;17.648;2022-12-07T01:39:02;51.87;;;26.30;;
22172;SDS011;11252;50.596;17.648;2022-12-07T01:41:33;35.53;;;21.80;;
22172;SDS011;11252;50.596;17.648;2022-12-07T01:46:50;26.03;;;18.13;;
22172;SDS011;11252;50.596;17.648;2022-12-07T01:49:39;23.53;;;16.67;;
22172;SDS011;11252;50.596;17.648;2022-12-07T01:52:21;22.13;;;16.03;;
22172;SDS011;11252;50.596;17.648;2022-12-07T01:54:52;24.07;;;16.43;;
22172;SDS011;11252;50.596;17.648;2022-12-07T01:57:23;25.90;;;18.20;;
22172;SDS011;11252;50.596;17.648;2022-12-07T01:59:52;26.43;;;17.83;;
22172;SDS011;11252;50.596;17.648;2022-12-07T02:02:33;27.80;;;19.37;;
22172;SDS011;11252;50.596;17.648;2022-12-07T02:05:03;27.70;;;19.50;;
22172;SDS011;11252;50.596;17.648;2022-12-07T02:07:39;40.17;;;27.73;;
22172;SDS011;11252;50.596;17.648;2022-12-07T02:10:18;35.13;;;22.87;;
22172;SDS011;11252;50.596;17.648;2022-12-07T02:12:49;35.67;;;23.50;;
22172;SDS011;11252;50.596;17.648;2022-12-07T02:15:20;44.37;;;26.87;;
22172;SDS011;11252;50.596;17.648;2022-12-07T02:21:03;30.43;;;20.40;;
22172;SDS011;11252;50.596;17.648;2022-12-07T02:35:45;26.47;;;18.90;;
22172;SDS011;11252;50.596;17.648;2022-12-07T02:38:24;33.20;;;20.43;;
22172;SDS011;11252;50.596;17.648;2022-12-07T02:41:07;26.67;;;18.63;;
22172;SDS011;11252;50.596;17.648;2022-12-07T02:46:14;25.27;;;17.13;;
22172;SDS011;11252;50.596;17.648;2022-12-07T02:48:52;20.73;;;15.17;;
22172;SDS011;11252;50.596;17.648;2022-12-07T02:51:21;23.07;;;17.67;;
22172;SDS011;11252;50.596;17.648;2022-12-07T02:53:49;23.20;;;16.20;;
22172;SDS011;11252;50.596;17.648;2022-12-07T02:56:20;20.53;;;14.83;;
22172;SDS011;11252;50.596;17.648;2022-12-07T03:07:32;20.30;;;13.73;;
22172;SDS011;11252;50.596;17.648;2022-12-07T03:15:46;18.10;;;13.20;;
22172;SDS011;11252;50.596;17.648;2022-12-07T03:18:18;17.73;;;12.67;;
22172;SDS011;11252;50.596;17.648;2022-12-07T03:20:49;16.90;;;11.50;;
22172;SDS011;11252;50.596;17.648;2022-12-07T03:23:20;15.43;;;12.10;;
22172;SDS011;11252;50.596;17.648;2022-12-07T03:25:50;16.30;;;10.97;;
22172;SDS011;11252;50.596;17.648;2022-12-07T03:28:26;13.27;;;10.50;;
22172;SDS011;11252;50.596;17.648;2022-12-07T03:31:01;15.97;;;11.13;;
22172;SDS011;11252;50.596;17.648;2022-12-07T03:33:42;14.93;;;10.80;;
22172;SDS011;11252;50.596;17.648;2022-12-07T03:36:23;12.73;;;9.70;;
22172;SDS011;11252;50.596;17.648;2022-12-07T03:39:20;16.00;;;10.27;;
22172;SDS011;11252;50.596;17.648;2022-12-07T03:41:55;11.50;;;8.63;;
22172;SDS011;11252;50.596;17.648;2022-12-07T03:44:26;9.77;;;7.80;;
22172;SDS011;11252;50.596;17.648;2022-12-07T03:47:01;10.17;;;7.70;;
22172;SDS011;11252;50.596;17.648;2022-12-07T03:49:54;10.20;;;8.00;;
22172;SDS011;11252;50.596;17.648;2022-12-07T03:52:32;9.03;;;6.87;;
22172;SDS011;11252;50.596;17.648;2022-12-07T03:57:48;7.73;;;5.03;;
22172;SDS011;11252;50.596;17.648;2022-12-07T04:00:21;6.63;;;5.70;;
22172;SDS011;11252;50.596;17.648;2022-12-07T04:02:50;5.50;;;4.80;;
22172;SDS011;11252;50.596;17.648;2022-12-07T04:05:19;5.07;;;4.47;;
22172;SDS011;11252;50.596;17.648;2022-12-07T04:07:47;5.10;;;4.60;;
22172;SDS011;11252;50.596;17.648;2022-12-07T04:10:14;4.57;;;3.70;;
22172;SDS011;11252;50.596;17.648;2022-12-07T04:12:41;5.43;;;4.30;;
22172;SDS011;11252;50.596;17.648;2022-12-07T04:15:09;3.73;;;2.90;;
22172;SDS011;11252;50.596;17.648;2022-12-07T04:17:37;3.43;;;2.90;;
22172;SDS011;11252;50.596;17.648;2022-12-07T04:20:07;4.33;;;2.93;;
22172;SDS011;11252;50.596;17.648;2022-12-07T04:22:35;2.77;;;2.47;;
22172;SDS011;11252;50.596;17.648;2022-12-07T04:25:03;2.53;;;2.23;;
22172;SDS011;11252;50.596;17.648;2022-12-07T04:27:30;2.57;;;2.03;;
22172;SDS011;11252;50.596;17.648;2022-12-07T04:29:58;3.40;;;2.20;;
22172;SDS011;11252;50.596;17.648;2022-12-07T04:32:26;2.57;;;2.03;;
22172;SDS011;11252;50.596;17.648;2022-12-07T04:34:53;2.73;;;2.13;;
22172;SDS011;11252;50.596;17.648;2022-12-07T04:37:21;2.67;;;2.30;;
22172;SDS011;11252;50.596;17.648;2022-12-07T04:39:50;3.97;;;2.20;;
22172;SDS011;11252;50.596;17.648;2022-12-07T04:42:18;2.63;;;2.27;;
22172;SDS011;11252;50.596;17.648;2022-12-07T04:44:45;2.37;;;2.00;;
22172;SDS011;11252;50.596;17.648;2022-12-07T04:47:12;3.07;;;2.23;;
22172;SDS011;11252;50.596;17.648;2022-12-07T04:49:40;11.97;;;2.93;;
22172;SDS011;11252;50.596;17.648;2022-12-07T04:52:07;3.17;;;2.63;;
22172;SDS011;11252;50.596;17.648;2022-12-07T04:54:34;3.63;;;2.53;;
22172;SDS011;11252;50.596;17.648;2022-12-07T04:57:02;6.03;;;2.73;;
22172;SDS011;11252;50.596;17.648;2022-12-07T04:59:29;2.80;;;2.47;;
22172;SDS011;11252;50.596;17.648;2022-12-07T05:01:56;4.77;;;2.90;;
22172;SDS011;11252;50.596;17.648;2022-12-07T05:04:24;2.80;;;2.53;;
22172;SDS011;11252;50.596;17.648;2022-12-07T05:06:52;3.20;;;2.73;;
22172;SDS011;11252;50.596;17.648;2022-12-07T05:09:19;3.17;;;2.63;;
22172;SDS011;11252;50.596;17.648;2022-12-07T05:11:46;3.77;;;3.37;;
22172;SDS011;11252;50.596;17.648;2022-12-07T05:14:18;4.77;;;3.53;;
22172;SDS011;11252;50.596;17.648;2022-12-07T05:16:48;3.90;;;3.50;;
22172;SDS011;11252;50.596;17.648;2022-12-07T05:19:17;4.00;;;3.10;;
22172;SDS011;11252;50.596;17.648;2022-12-07T05:21:45;4.57;;;3.53;;
22172;SDS011;11252;50.596;17.648;2022-12-07T05:24:14;4.57;;;3.93;;
22172;SDS011;11252;50.596;17.648;2022-12-07T05:26:42;5.47;;;4.10;;
22172;SDS011;11252;50.596;17.648;2022-12-07T05:29:11;4.97;;;4.07;;
22172;SDS011;11252;50.596;17.648;2022-12-07T05:31:43;6.40;;;4.80;;
22172;SDS011;11252;50.596;17.648;2022-12-07T05:34:11;29.97;;;17.47;;
22172;SDS011;11252;50.596;17.648;2022-12-07T05:36:39;23.33;;;14.00;;
22172;SDS011;11252;50.596;17.648;2022-12-07T05:39:07;8.47;;;6.33;;
22172;SDS011;11252;50.596;17.648;2022-12-07T05:41:35;9.53;;;6.47;;
22172;SDS011;11252;50.596;17.648;2022-12-07T05:44:21;7.17;;;6.27;;
22172;SDS011;11252;50.596;17.648;2022-12-07T05:46:48;8.40;;;6.03;;
22172;SDS011;11252;50.596;17.648;2022-12-07T05:49:15;9.07;;;6.23;;
22172;SDS011;11252;50.596;17.648;2022-12-07T05:51:43;7.50;;;6.70;;
22172;SDS011;11252;50.596;17.648;2022-12-07T05:54:10;7.00;;;6.30;;
22172;SDS011;11252;50.596;17.648;2022-12-07T05:56:37;7.47;;;5.80;;
22172;SDS011;11252;50.596;17.648;2022-12-07T05:59:05;7.20;;;5.30;;
22172;SDS011;11252;50.596;17.648;2022-12-07T06:01:55;8.40;;;6.20;;
22172;SDS011;11252;50.596;17.648;2022-12-07T06:04:25;7.10;;;6.30;;
22172;SDS011;11252;50.596;17.648;2022-12-07T06:06:55;9.60;;;6.43;;
22172;SDS011;11252;50.596;17.648;2022-12-07T06:09:23;9.47;;;7.17;;
22172;SDS011;11252;50.596;17.648;2022-12-07T06:11:51;5.40;;;4.90;;
22172;SDS011;11252;50.596;17.648;2022-12-07T06:14:58;10.07;;;8.63;;
22172;SDS011;11252;50.596;17.648;2022-12-07T06:17:25;11.00;;;8.30;;
22172;SDS011;11252;50.596;17.648;2022-12-07T06:19:53;12.80;;;10.33;;
22172;SDS011;11252;50.596;17.648;2022-12-07T06:22:20;10.00;;;6.43;;
22172;SDS011;11252;50.596;17.648;2022-12-07T06:24:48;9.67;;;8.67;;
22172;SDS011;11252;50.596;17.648;2022-12-07T06:27:15;5.73;;;5.10;;
22172;SDS011;11252;50.596;17.648;2022-12-07T06:29:43;7.73;;;6.80;;
22172;SDS011;11252;50.596;17.648;2022-12-07T06:32:10;11.50;;;7.37;;
22172;SDS011;11252;50.596;17.648;2022-12-07T06:34:38;8.73;;;7.80;;
22172;SDS011;11252;50.596;17.648;2022-12-07T06:37:06;21.87;;;17.23;;
22172;SDS011;11252;50.596;17.648;2022-12-07T06:39:34;72.10;;;41.37;;
22172;SDS011;11252;50.596;17.648;2022-12-07T06:42:01;129.10;;;71.43;;
22172;SDS011;11252;50.596;17.648;2022-12-07T06:44:29;135.07;;;81.00;;
22172;SDS011;11252;50.596;17.648;2022-12-07T06:46:56;51.43;;;33.47;;
22172;SDS011;11252;50.596;17.648;2022-12-07T06:49:44;25.10;;;19.43;;
22172;SDS011;11252;50.596;17.648;2022-12-07T06:52:11;26.70;;;20.97;;
22172;SDS011;11252;50.596;17.648;2022-12-07T06:54:38;24.30;;;20.77;;
22172;SDS011;11252;50.596;17.648;2022-12-07T06:57:06;32.60;;;29.10;;
22172;SDS011;11252;50.596;17.648;2022-12-07T06:59:33;18.00;;;16.10;;
22172;SDS011;11252;50.596;17.648;2022-12-07T07:02:02;11.70;;;10.50;;
22172;SDS011;11252;50.596;17.648;2022-12-07T07:04:29;6.30;;;5.70;;
22172;SDS011;11252;50.596;17.648;2022-12-07T07:06:57;5.53;;;4.70;;
22172;SDS011;11252;50.596;17.648;2022-12-07T07:09:25;6.67;;;5.60;;
22172;SDS011;11252;50.596;17.648;2022-12-07T07:11:53;6.10;;;5.20;;
22172;SDS011;11252;50.596;17.648;2022-12-07T07:14:21;6.00;;;4.60;;
22172;SDS011;11252;50.596;17.648;2022-12-07T07:16:48;11.60;;;7.50;;
22172;SDS011;11252;50.596;17.648;2022-12-07T07:19:16;6.47;;;4.47;;
22172;SDS011;11252;50.596;17.648;2022-12-07T07:21:43;4.40;;;4.00;;
22172;SDS011;11252;50.596;17.648;2022-12-07T07:24:10;4.40;;;3.73;;
22172;SDS011;11252;50.596;17.648;2022-12-07T07:26:38;6.00;;;3.93;;
22172;SDS011;11252;50.596;17.648;2022-12-07T07:29:05;5.97;;;5.37;;
22172;SDS011;11252;50.596;17.648;2022-12-07T07:31:33;4.70;;;4.10;;
22172;SDS011;11252;50.596;17.648;2022-12-07T07:34:02;4.63;;;3.60;;
22172;SDS011;11252;50.596;17.648;2022-12-07T07:36:30;5.23;;;4.07;;
22172;SDS011;11252;50.596;17.648;2022-12-07T07:38:57;5.47;;;4.03;;
22172;SDS011;11252;50.596;17.648;2022-12-07T07:41:26;7.27;;;3.80;;
22172;SDS011;11252;50.596;17.648;2022-12-07T07:43:53;4.80;;;4.13;;
22172;SDS011;11252;50.596;17.648;2022-12-07T07:46:21;5.43;;;4.10;;
22172;SDS011;11252;50.596;17.648;2022-12-07T07:48:48;5.93;;;4.87;;
22172;SDS011;11252;50.596;17.648;2022-12-07T07:51:16;8.30;;;4.10;;
22172;SDS011;11252;50.596;17.648;2022-12-07T07:53:43;6.97;;;5.23;;
22172;SDS011;11252;50.596;17.648;2022-12-07T07:56:10;5.10;;;4.60;;
22172;SDS011;11252;50.596;17.648;2022-12-07T07:58:37;5.07;;;3.83;;
22172;SDS011;11252;50.596;17.648;2022-12-07T08:01:06;5.23;;;4.00;;
22172;SDS011;11252;50.596;17.648;2022-12-07T08:03:34;5.43;;;3.70;;
22172;SDS011;11252;50.596;17.648;2022-12-07T08:06:02;4.37;;;3.93;;
22172;SDS011;11252;50.596;17.648;2022-12-07T08:08:30;7.37;;;6.47;;
22172;SDS011;11252;50.596;17.648;2022-12-07T08:10:58;11.23;;;8.50;;
22172;SDS011;11252;50.596;17.648;2022-12-07T08:13:27;11.20;;;9.13;;
22172;SDS011;11252;50.596;17.648;2022-12-07T08:15:57;16.43;;;11.47;;
22172;SDS011;11252;50.596;17.648;2022-12-07T08:18:25;27.63;;;15.87;;
22172;SDS011;11252;50.596;17.648;2022-12-07T08:20:52;19.13;;;11.50;;
22172;SDS011;11252;50.596;17.648;2022-12-07T08:23:26;11.27;;;8.33;;
22172;SDS011;11252;50.596;17.648;2022-12-07T08:26:04;11.60;;;9.77;;
22172;SDS011;11252;50.596;17.648;2022-12-07T08:28:35;6.87;;;6.03;;
22172;SDS011;11252;50.596;17.648;2022-12-07T08:31:05;6.80;;;5.43;;
22172;SDS011;11252;50.596;17.648;2022-12-07T08:33:35;4.80;;;3.93;;
22172;SDS011;11252;50.596;17.648;2022-12-07T08:36:04;4.70;;;4.00;;
22172;SDS011;11252;50.596;17.648;2022-12-07T08:38:36;6.73;;;4.63;;
22172;SDS011;11252;50.596;17.648;2022-12-07T08:41:05;4.00;;;3.57;;
22172;SDS011;11252;50.596;17.648;2022-12-07T08:43:33;4.20;;;3.80;;
22172;SDS011;11252;50.596;17.648;2022-12-07T08:48:51;4.37;;;3.97;;
22172;SDS011;11252;50.596;17.648;2022-12-07T08:51:24;5.03;;;4.10;;
22172;SDS011;11252;50.596;17.648;2022-12-07T08:53:51;6.47;;;4.10;;
22172;SDS011;11252;50.596;17.648;2022-12-07T08:56:20;6.13;;;5.53;;
22172;SDS011;11252;50.596;17.648;2022-12-07T08:58:48;7.70;;;6.90;;
22172;SDS011;11252;50.596;17.648;2022-12-07T09:01:16;8.97;;;6.80;;
22172;SDS011;11252;50.596;17.648;2022-12-07T09:03:43;6.97;;;6.20;;
22172;SDS011;11252;50.596;17.648;2022-12-07T09:06:10;7.17;;;6.20;;
22172;SDS011;11252;50.596;17.648;2022-12-07T09:08:40;9.80;;;8.33;;
22172;SDS011;11252;50.596;17.648;2022-12-07T09:11:12;7.03;;;5.43;;
22172;SDS011;11252;50.596;17.648;2022-12-07T09:13:39;9.33;;;6.60;;
22172;SDS011;11252;50.596;17.648;2022-12-07T09:16:07;8.40;;;7.30;;
22172;SDS011;11252;50.596;17.648;2022-12-07T09:18:34;11.30;;;9.40;;
22172;SDS011;11252;50.596;17.648;2022-12-07T09:21:02;8.27;;;7.10;;
22172;SDS011;11252;50.596;17.648;2022-12-07T09:23:29;8.63;;;7.73;;
22172;SDS011;11252;50.596;17.648;2022-12-07T09:26:01;6.63;;;6.03;;
22172;SDS011;11252;50.596;17.648;2022-12-07T09:28:36;5.97;;;4.73;;
22172;SDS011;11252;50.596;17.648;2022-12-07T09:31:05;6.37;;;5.77;;
22172;SDS011;11252;50.596;17.648;2022-12-07T09:33:53;5.83;;;5.00;;
22172;SDS011;11252;50.596;17.648;2022-12-07T09:36:25;5.17;;;4.70;;
22172;SDS011;11252;50.596;17.648;2022-12-07T09:38:54;4.77;;;4.37;;
22172;SDS011;11252;50.596;17.648;2022-12-07T09:41:22;5.00;;;4.60;;
22172;SDS011;11252;50.596;17.648;2022-12-07T09:43:52;4.70;;;3.77;;
22172;SDS011;11252;50.596;17.648;2022-12-07T09:46:24;4.73;;;4.23;;
22172;SDS011;11252;50.596;17.648;2022-12-07T09:48:52;3.93;;;3.63;;
22172;SDS011;11252;50.596;17.648;2022-12-07T09:51:20;4.43;;;4.03;;
22172;SDS011;11252;50.596;17.648;2022-12-07T09:53:52;4.57;;;4.07;;
22172;SDS011;11252;50.596;17.648;2022-12-07T09:56:20;4.07;;;3.67;;
22172;SDS011;11252;50.596;17.648;2022-12-07T09:58:58;3.70;;;3.40;;
22172;SDS011;11252;50.596;17.648;2022-12-07T10:01:28;3.10;;;2.87;;
22172;SDS011;11252;50.596;17.648;2022-12-07T10:04:05;4.43;;;3.73;;
22172;SDS011;11252;50.596;17.648;2022-12-07T10:06:39;3.93;;;3.57;;
22172;SDS011;11252;50.596;17.648;2022-12-07T10:09:14;3.27;;;2.97;;
22172;SDS011;11252;50.596;17.648;2022-12-07T10:12:02;4.40;;;4.00;;
22172;SDS011;11252;50.596;17.648;2022-12-07T10:14:33;4.23;;;3.23;;
22172;SDS011;11252;50.596;17.648;2022-12-07T10:17:28;4.10;;;3.77;;
22172;SDS011;11252;50.596;17.648;2022-12-07T10:20:32;3.87;;;3.47;;
22172;SDS011;11252;50.596;17.648;2022-12-07T10:22:54;3.37;;;3.07;;
22172;SDS011;11252;50.596;17.648;2022-12-07T10:25:28;3.23;;;2.93;;
22172;SDS011;11252;50.596;17.648;2022-12-07T10:28:10;4.27;;;3.20;;
22172;SDS011;11252;50.596;17.648;2022-12-07T10:30:50;5.43;;;3.43;;
22172;SDS011;11252;50.596;17.648;2022-12-07T10:33:29;3.37;;;3.07;;
22172;SDS011;11252;50.596;17.648;2022-12-07T10:35:57;4.10;;;3.20;;
22172;SDS011;11252;50.596;17.648;2022-12-07T10:38:26;3.10;;;2.80;;
22172;SDS011;11252;50.596;17.648;2022-12-07T10:41:05;7.50;;;6.80;;
22172;SDS011;11252;50.596;17.648;2022-12-07T10:43:33;4.13;;;3.60;;
22172;SDS011;11252;50.596;17.648;2022-12-07T10:48:57;3.20;;;2.90;;
22172;SDS011;11252;50.596;17.648;2022-12-07T10:51:52;3.80;;;3.40;;
22172;SDS011;11252;50.596;17.648;2022-12-07T10:58:08;4.07;;;3.30;;
22172;SDS011;11252;50.596;17.648;2022-12-07T11:01:17;2.60;;;2.30;;
22172;SDS011;11252;50.596;17.648;2022-12-07T11:09:43;4.33;;;3.87;;
22172;SDS011;11252;50.596;17.648;2022-12-07T11:15:24;3.87;;;3.57;;
22172;SDS011;11252;50.596;17.648;2022-12-07T11:18:06;3.80;;;3.47;;
22172;SDS011;11252;50.596;17.648;2022-12-07T11:20:52;4.13;;;3.70;;
22172;SDS011;11252;50.596;17.648;2022-12-07T11:26:34;8.23;;;7.43;;
22172;SDS011;11252;50.596;17.648;2022-12-07T11:37:55;15.97;;;13.33;;
22172;SDS011;11252;50.596;17.648;2022-12-07T11:40:49;3.83;;;3.43;;
22172;SDS011;11252;50.596;17.648;2022-12-07T11:46:03;7.33;;;6.03;;
22172;SDS011;11252;50.596;17.648;2022-12-07T11:48:37;10.93;;;8.70;;
22172;SDS011;11252;50.596;17.648;2022-12-07T11:51:09;8.30;;;7.37;;
22172;SDS011;11252;50.596;17.648;2022-12-07T11:53:40;3.67;;;3.20;;
22172;SDS011;11252;50.596;17.648;2022-12-07T11:56:13;6.60;;;6.00;;
22172;SDS011;11252;50.596;17.648;2022-12-07T11:59:00;7.30;;;6.27;;
22172;SDS011;11252;50.596;17.648;2022-12-07T12:02:00;4.10;;;3.70;;
22172;SDS011;11252;50.596;17.648;2022-12-07T12:07:44;3.90;;;3.60;;
22172;SDS011;11252;50.596;17.648;2022-12-07T12:19:33;19.57;;;12.33;;
22172;SDS011;11252;50.596;17.648;2022-12-07T12:22:28;58.00;;;33.37;;
22172;SDS011;11252;50.596;17.648;2022-12-07T12:25:17;26.97;;;18.40;;
22172;SDS011;11252;50.596;17.648;2022-12-07T12:27:48;8.50;;;7.00;;
22172;SDS011;11252;50.596;17.648;2022-12-07T12:30:51;10.13;;;7.23;;
22172;SDS011;11252;50.596;17.648;2022-12-07T12:35:42;7.37;;;6.67;;
22172;SDS011;11252;50.596;17.648;2022-12-07T12:51:48;3.83;;;3.47;;
22172;SDS011;11252;50.596;17.648;2022-12-07T12:54:20;3.10;;;2.80;;
22172;SDS011;11252;50.596;17.648;2022-12-07T13:07:47;3.30;;;3.00;;
22172;SDS011;11252;50.596;17.648;2022-12-07T13:12:57;3.13;;;2.83;;
22172;SDS011;11252;50.596;17.648;2022-12-07T13:18:03;3.80;;;3.30;;
22172;SDS011;11252;50.596;17.648;2022-12-07T13:20:51;2.20;;;2.00;;
22172;SDS011;11252;50.596;17.648;2022-12-07T13:23:21;4.20;;;3.33;;
22172;SDS011;11252;50.596;17.648;2022-12-07T13:26:14;2.70;;;2.50;;
22172;SDS011;11252;50.596;17.648;2022-12-07T13:28:50;3.30;;;2.90;;
22172;SDS011;11252;50.596;17.648;2022-12-07T13:31:42;4.67;;;3.00;;
22172;SDS011;11252;50.596;17.648;2022-12-07T13:37:15;6.40;;;5.33;;
22172;SDS011;11252;50.596;17.648;2022-12-07T13:39:45;6.73;;;5.63;;
22172;SDS011;11252;50.596;17.648;2022-12-07T13:42:32;6.67;;;5.67;;
22172;SDS011;11252;50.596;17.648;2022-12-07T13:45:17;3.77;;;2.77;;
22172;SDS011;11252;50.596;17.648;2022-12-07T13:48:14;4.70;;;4.30;;
22172;SDS011;11252;50.596;17.648;2022-12-07T13:50:55;3.77;;;3.20;;
22172;SDS011;11252;50.596;17.648;2022-12-07T13:53:23;6.90;;;6.23;;
22172;SDS011;11252;50.596;17.648;2022-12-07T13:55:54;6.30;;;5.43;;
22172;SDS011;11252;50.596;17.648;2022-12-07T13:58:22;7.47;;;6.30;;
22172;SDS011;11252;50.596;17.648;2022-12-07T14:00:51;8.27;;;7.10;;
22172;SDS011;11252;50.596;17.648;2022-12-07T14:03:23;4.77;;;4.30;;
22172;SDS011;11252;50.596;17.648;2022-12-07T14:06:14;8.07;;;5.80;;
22172;SDS011;11252;50.596;17.648;2022-12-07T14:08:43;11.67;;;10.10;;
22172;SDS011;11252;50.596;17.648;2022-12-07T14:11:15;9.40;;;7.60;;
22172;SDS011;11252;50.596;17.648;2022-12-07T14:13:47;11.33;;;8.93;;
22172;SDS011;11252;50.596;17.648;2022-12-07T14:18:45;5.17;;;4.70;;
22172;SDS011;11252;50.596;17.648;2022-12-07T14:23:40;16.30;;;11.53;;
22172;SDS011;11252;50.596;17.648;2022-12-07T14:26:12;40.83;;;26.97;;
22172;SDS011;11252;50.596;17.648;2022-12-07T14:28:41;38.43;;;28.20;;
22172;SDS011;11252;50.596;17.648;2022-12-07T14:31:15;29.00;;;19.90;;
22172;SDS011;11252;50.596;17.648;2022-12-07T14:33:58;14.63;;;12.40;;
22172;SDS011;11252;50.596;17.648;2022-12-07T14:36:26;9.27;;;8.43;;
22172;SDS011;11252;50.596;17.648;2022-12-07T14:38:54;9.33;;;8.40;;
22172;SDS011;11252;50.596;17.648;2022-12-07T14:41:24;6.83;;;6.23;;
22172;SDS011;11252;50.596;17.648;2022-12-07T14:44:11;13.67;;;11.60;;
22172;SDS011;11252;50.596;17.648;2022-12-07T14:46:51;54.93;;;35.17;;
22172;SDS011;11252;50.596;17.648;2022-12-07T14:49:40;28.93;;;22.33;;
22172;SDS011;11252;50.596;17.648;2022-12-07T14:52:18;38.87;;;27.00;;
22172;SDS011;11252;50.596;17.648;2022-12-07T14:55:17;21.87;;;18.37;;
22172;SDS011;11252;50.596;17.648;2022-12-07T14:57:52;19.87;;;15.83;;
22172;SDS011;11252;50.596;17.648;2022-12-07T15:00:21;15.60;;;14.03;;
22172;SDS011;11252;50.596;17.648;2022-12-07T15:02:50;14.37;;;12.27;;
22172;SDS011;11252;50.596;17.648;2022-12-07T15:05:19;11.20;;;9.73;;
22172;SDS011;11252;50.596;17.648;2022-12-07T15:07:46;9.10;;;8.03;;
22172;SDS011;11252;50.596;17.648;2022-12-07T15:10:16;10.30;;;7.87;;
22172;SDS011;11252;50.596;17.648;2022-12-07T15:12:49;10.00;;;8.93;;
22172;SDS011;11252;50.596;17.648;2022-12-07T15:15:17;10.77;;;9.33;;
22172;SDS011;11252;50.596;17.648;2022-12-07T15:17:44;12.17;;;10.87;;
22172;SDS011;11252;50.596;17.648;2022-12-07T15:20:13;27.43;;;21.47;;
22172;SDS011;11252;50.596;17.648;2022-12-07T15:22:43;8.53;;;7.73;;
22172;SDS011;11252;50.596;17.648;2022-12-07T15:25:13;7.80;;;7.00;;
22172;SDS011;11252;50.596;17.648;2022-12-07T15:27:41;11.47;;;8.90;;
22172;SDS011;11252;50.596;17.648;2022-12-07T15:30:08;15.90;;;13.60;;
22172;SDS011;11252;50.596;17.648;2022-12-07T15:32:36;14.20;;;10.50;;
22172;SDS011;11252;50.596;17.648;2022-12-07T15:35:04;35.23;;;21.10;;
22172;SDS011;11252;50.596;17.648;2022-12-07T15:37:35;18.63;;;13.70;;
22172;SDS011;11252;50.596;17.648;2022-12-07T15:40:07;17.53;;;14.53;;
22172;SDS011;11252;50.596;17.648;2022-12-07T15:42:40;14.97;;;12.30;;
22172;SDS011;11252;50.596;17.648;2022-12-07T15:45:08;14.80;;;11.63;;
22172;SDS011;11252;50.596;17.648;2022-12-07T15:47:40;16.03;;;13.60;;
22172;SDS011;11252;50.596;17.648;2022-12-07T15:50:28;12.60;;;11.27;;
22172;SDS011;11252;50.596;17.648;2022-12-07T15:52:56;13.00;;;10.63;;
22172;SDS011;11252;50.596;17.648;2022-12-07T15:55:23;24.30;;;16.40;;
22172;SDS011;11252;50.596;17.648;2022-12-07T15:57:51;17.97;;;14.17;;
22172;SDS011;11252;50.596;17.648;2022-12-07T16:00:19;15.63;;;10.83;;
22172;SDS011;11252;50.596;17.648;2022-12-07T16:02:46;18.77;;;15.07;;
22172;SDS011;11252;50.596;17.648;2022-12-07T16:05:14;22.63;;;14.43;;
22172;SDS011;11252;50.596;17.648;2022-12-07T16:07:41;34.77;;;27.33;;
22172;SDS011;11252;50.596;17.648;2022-12-07T16:10:09;58.23;;;42.40;;
22172;SDS011;11252;50.596;17.648;2022-12-07T16:12:36;57.00;;;36.40;;
22172;SDS011;11252;50.596;17.648;2022-12-07T16:15:04;86.77;;;57.30;;
22172;SDS011;11252;50.596;17.648;2022-12-07T16:17:32;49.93;;;37.43;;
22172;SDS011;11252;50.596;17.648;2022-12-07T16:19:59;40.77;;;27.77;;
22172;SDS011;11252;50.596;17.648;2022-12-07T16:22:27;21.03;;;17.13;;
22172;SDS011;11252;50.596;17.648;2022-12-07T16:24:54;23.13;;;19.80;;
22172;SDS011;11252;50.596;17.648;2022-12-07T16:27:22;9.60;;;7.23;;
22172;SDS011;11252;50.596;17.648;2022-12-07T16:29:49;10.63;;;4.90;;
22172;SDS011;11252;50.596;17.648;2022-12-07T16:32:16;9.80;;;5.57;;
22172;SDS011;11252;50.596;17.648;2022-12-07T16:34:44;7.83;;;5.10;;
22172;SDS011;11252;50.596;17.648;2022-12-07T16:37:11;6.57;;;4.87;;
22172;SDS011;11252;50.596;17.648;2022-12-07T16:39:39;6.53;;;5.30;;
22172;SDS011;11252;50.596;17.648;2022-12-07T16:42:07;9.77;;;5.63;;
22172;SDS011;11252;50.596;17.648;2022-12-07T16:44:35;9.93;;;6.20;;
22172;SDS011;11252;50.596;17.648;2022-12-07T16:47:02;6.50;;;5.33;;
22172;SDS011;11252;50.596;17.648;2022-12-07T16:49:31;8.57;;;6.87;;
22172;SDS011;11252;50.596;17.648;2022-12-07T16:51:58;9.77;;;6.47;;
22172;SDS011;11252;50.596;17.648;2022-12-07T16:54:45;7.27;;;6.53;;